Latest Weather Observations for Dennes Point

IDT60901

Issued at 5:41 pm EST Wednesday 23 September 2020 (issued every 10 minutes, with the page automatically refreshed every 10 minutes)

About weather observations | Map of Hobart area stations | Latest observations for Hobart area | Other Formats
Station Details ID: 094255 Name: DENNES POINT Lat: -43.06 Lon: 147.36 Height: 5.67 m
Data from the previous 72 hours. | See also: Recent months at Dennes Point
Date/Time
EST
Temp
°C
App
Temp
°C
Dew
Point
°C
Rel
Hum
%
Delta-T
°C
Wind Press
QNH
hPa
Press
MSL
hPa
Rain since
9am
mm
Dir  Spd
km/h
Gust
km/h
Spd
kts
Gust
kts
23/05:30pm 9.9 5.8 6.3 78 1.7 SW 17 24 9 13 1004.5 1004.5 1.4
23/05:00pm 10.6 6.0 6.4 75 2.0 SSW 20 37 11 20 1003.9 1003.9 1.4
23/04:30pm 10.4 5.5 6.7 78 1.7 SSW 22 39 12 21 1003.5 1003.5 1.4
23/04:00pm 10.4 4.3 6.7 78 1.7 SSW 28 39 15 21 1003.1 1003.1 1.4
23/03:30pm 10.7 4.8 7.4 80 1.6 SW 28 43 15 23 1002.6 1002.6 1.4
23/03:00pm 10.6 5.5 7.8 83 1.4 SSW 24 35 13 19 1002.5 1002.5 1.4
23/02:30pm 11.3 5.9 8.2 81 1.5 SW 26 41 14 22 1001.8 1001.9 1.4
23/02:06pm 11.4 5.5 7.7 78 1.8 SW 28 48 15 26 1001.2 1001.3 1.4
23/02:00pm 11.8 6.5 8.5 80 1.6 SW 26 39 14 21 1001.2 1001.3 1.4
23/01:38pm 10.8 5.0 8.0 83 1.4 SW 28 46 15 25 1000.9 1001.0 1.4
23/01:30pm 10.8 6.3 8.4 85 1.2 SW 22 33 12 18 1000.9 1001.0 1.4
23/01:00pm 11.4 5.6 8.1 80 1.6 SW 28 39 15 21 1000.4 1000.5 1.4
23/12:30pm 13.0 6.0 8.5 74 2.2 SW 35 52 19 28 999.7 999.7 1.4
23/12:18pm 12.3 6.6 8.2 76 2.0 SW 28 48 15 26 999.5 999.5 1.4
23/12:00pm 11.4 6.8 8.3 81 1.5 SW 22 37 12 20 999.7 999.7 1.2
23/11:30am 13.4 6.7 7.4 67 2.9 WSW 32 43 17 23 998.9 998.9 0.2
23/11:00am 12.7 5.9 6.7 67 2.9 WSW 32 44 17 24 998.7 998.7 0.2
23/10:30am 12.2 5.4 6.7 69 2.6 WSW 32 46 17 25 998.6 998.6 0.2
23/10:23am 12.2 5.4 6.9 70 2.5 WSW 32 46 17 25 998.6 998.6 0.2
23/10:00am 12.2 8.1 8.5 78 1.8 SW 20 26 11 14 998.5 998.5 0.2
23/09:30am 11.5 7.5 8.2 80 1.6 SW 19 24 10 13 998.5 998.5 0.2
23/09:00am 11.2 4.4 7.5 78 1.8 WSW 33 43 18 23 998.0 998.0 0.4
23/08:30am 11.4 6.1 8.3 81 1.5 WSW 26 32 14 17 997.4 997.4 0.4
23/08:00am 10.7 5.8 7.0 78 1.8 SW 22 35 12 19 997.2 997.2 0.2
23/07:30am 11.2 5.1 6.5 73 2.2 W 28 35 15 19 996.5 996.5 0.0
23/07:00am 10.9 5.5 6.3 73 2.2 W 24 32 13 17 996.1 996.1 0.0
23/06:30am 10.4 6.2 5.8 73 2.1 WNW 17 22 9 12 995.9 995.9 0.0
23/06:00am 10.2 7.6 6.0 75 2.0 NNW 9 13 5 7 995.6 995.6 0.0
23/05:30am 10.2 6.4 5.6 73 2.1 WNW 15 19 8 10 995.1 995.1 0.0
23/05:00am 10.2 6.4 5.6 73 2.1 WNW 15 22 8 12 994.9 994.9 0.0
23/04:30am 10.4 5.8 5.6 72 2.2 WNW 19 28 10 15 994.7 994.7 0.0
23/04:00am 11.2 6.8 4.9 65 2.9 W 17 30 9 16 994.4 994.4 0.0
23/03:30am 11.4 8.5 4.8 64 3.0 NW 9 13 5 7 994.3 994.3 0.0
23/03:00am 11.2 7.3 5.5 68 2.7 NNW 15 20 8 11 994.0 994.0 0.0
23/02:30am 11.2 5.7 4.2 62 3.1 NW 22 33 12 18 994.1 994.1 0.0
23/02:00am 11.3 6.2 4.1 61 3.2 NW 20 28 11 15 994.3 994.3 0.0
23/01:30am 10.9 5.8 3.9 62 3.1 WNW 20 32 11 17 994.5 994.5 0.0
23/01:00am 11.1 6.2 4.3 63 3.1 NW 19 30 10 16 994.9 994.9 0.0
23/12:30am 11.0 5.5 4.0 62 3.1 NW 22 33 12 18 995.1 995.1 0.0
23/12:00am 11.0 5.2 4.2 63 3.1 WNW 24 35 13 19 995.2 995.2 0.0
 
Date/Time
EST
Temp
°C
App
Temp
°C
Dew
Point
°C
Rel
Hum
%
Delta-T
°C
Wind Press
QNH
hPa
Press
MSL
hPa
Rain since
9am
mm
Dir  Spd
km/h
Gust
km/h
Spd
kts
Gust
kts
22/11:30pm 11.0 5.4 5.5 69 2.5 WNW 24 30 13 16 995.4 995.4 0.0
22/11:00pm 11.3 5.0 5.6 68 2.7 W 28 33 15 18 995.3 995.3 0.0
22/10:30pm 12.2 7.8 4.7 60 3.4 NW 17 24 9 13 995.3 995.3 0.0
22/10:00pm 12.4 8.4 4.9 60 3.5 WNW 15 24 8 13 995.0 995.0 0.0
22/09:30pm 12.2 9.1 5.4 63 3.2 NW 11 17 6 9 995.0 995.0 0.0
22/09:00pm 12.1 9.2 6.4 68 2.7 NW 11 15 6 8 994.8 994.8 0.0
22/08:30pm 12.1 9.3 5.0 62 3.3 WNW 9 11 5 6 994.8 994.8 0.0
22/08:00pm 12.5 8.9 5.0 60 3.5 WNW 13 20 7 11 994.8 994.8 0.0
22/07:30pm 12.8 8.8 5.0 59 3.6 WNW 15 20 8 11 994.6 994.6 0.0
22/07:00pm 12.2 8.2 5.1 62 3.3 W 15 22 8 12 994.5 994.5 0.0
22/06:30pm 13.0 7.7 4.9 58 3.7 W 22 30 12 16 994.1 994.1 0.0
22/06:00pm 12.7 9.2 5.6 62 3.3 WNW 13 19 7 10 994.1 994.1 0.0
22/05:30pm 13.3 9.6 6.2 62 3.4 W 15 20 8 11 993.8 993.8 0.0
22/05:00pm 14.8 11.2 6.9 59 3.9 W 15 20 8 11 993.6 993.6 0.0
22/04:30pm 15.3 10.8 7.1 58 4.0 W 20 26 11 14 993.1 993.1 0.0
22/04:00pm 16.3 10.7 5.6 49 5.2 WNW 24 33 13 18 993.1 993.1 0.0
22/03:30pm 17.0 12.1 7.1 52 4.9 W 22 30 12 16 993.1 993.1 0.0
22/03:00pm 15.8 10.4 6.3 53 4.7 W 24 32 13 17 993.0 993.0 0.0
22/02:30pm 16.4 10.4 5.1 47 5.4 WNW 26 35 14 19 992.8 992.8 0.0
22/02:12pm 17.7 11.4 5.9 46 5.8 WNW 28 46 15 25 992.9 992.9 0.0
22/02:00pm 17.2 13.3 7.0 51 5.1 W 17 24 9 13 992.8 992.8 0.0
22/01:30pm 15.9 10.1 6.3 53 4.7 W 26 33 14 18 992.7 992.7 0.0
22/01:00pm 16.1 10.8 6.8 54 4.6 W 24 33 13 18 992.9 992.9 0.0
22/12:30pm 15.8 11.5 7.1 56 4.3 NW 19 24 10 13 993.2 993.2 0.0
22/12:00pm 14.6 11.0 6.7 59 3.9 NNW 15 30 8 16 993.5 993.5 0.0
22/11:30am 16.2 12.5 6.1 51 4.9 NW 15 20 8 11 993.4 993.4 0.0
22/11:00am 16.1 11.4 6.0 51 4.9 NW 20 30 11 16 993.4 993.4 0.0
22/10:30am 16.6 13.4 6.7 52 4.9 NW 13 32 7 17 993.8 993.8 0.0
22/10:00am 15.3 10.8 6.1 54 4.5 NNW 19 22 10 12 993.9 993.9 0.0
22/09:30am 15.0 9.9 6.0 55 4.3 NNW 22 33 12 18 994.1 994.1 0.0
22/09:00am 13.7 9.2 6.8 63 3.4 N 20 26 11 14 994.4 994.4 0.4
22/08:30am 13.2 8.3 6.8 65 3.1 N 22 26 12 14 994.5 994.5 0.4
22/08:00am 12.8 7.8 6.4 65 3.1 N 22 30 12 16 994.4 994.4 0.4
22/07:30am 12.6 7.5 6.2 65 3.0 N 22 28 12 15 994.8 994.8 0.4
22/07:00am 12.3 8.5 5.9 65 3.0 NNW 15 20 8 11 994.7 994.7 0.4
22/06:30am 12.1 8.3 5.9 66 2.9 NNW 15 20 8 11 994.8 994.8 0.4
22/06:00am 11.9 7.6 5.3 64 3.1 NNW 17 20 9 11 994.7 994.7 0.4
22/05:30am 11.5 7.8 6.2 70 2.5 NNW 15 17 8 9 994.7 994.7 0.4
22/05:00am 11.6 8.7 6.5 71 2.4 N 11 17 6 9 994.9 994.9 0.4
22/04:30am 11.3 9.0 7.6 78 1.8 NNE 9 13 5 7 994.7 994.7 0.4
22/04:00am 11.3 8.8 8.0 80 1.6 NNE 11 19 6 10 994.9 994.9 0.4
22/03:30am 11.1 8.0 7.4 78 1.8 N 13 19 7 10 995.3 995.3 0.4
22/03:00am 11.1 8.2 8.0 81 1.5 NE 13 17 7 9 995.6 995.6 0.4
22/02:30am 11.2 6.4 7.5 78 1.8 NNE 22 26 12 14 996.1 996.1 0.4
22/02:00am 11.4 7.1 7.7 78 1.8 NNE 20 24 11 13 996.7 996.7 0.4
22/01:30am 11.2 6.0 7.1 76 2.0 NNE 24 28 13 15 997.4 997.4 0.4
22/01:00am 11.5 6.7 7.4 76 2.0 NE 22 26 12 14 997.7 997.7 0.4
22/12:30am 11.8 7.0 7.5 75 2.1 NNE 22 28 12 15 997.9 997.9 0.4
22/12:00am 11.8 6.5 5.2 64 3.1 NNE 22 26 12 14 998.0 998.0 0.4
 
Date/Time
EST
Temp
°C
App
Temp
°C
Dew
Point
°C
Rel
Hum
%
Delta-T
°C
Wind Press
QNH
hPa
Press
MSL
hPa
Rain since
9am
mm
Dir  Spd
km/h
Gust
km/h
Spd
kts
Gust
kts
21/11:30pm 11.6 6.8 7.3 75 2.1 NE 22 30 12 16 998.2 998.2 0.4
21/11:00pm 12.1 8.6 7.2 72 2.4 NE 15 19 8 10 998.4 998.4 0.4
21/10:30pm 12.5 9.2 6.5 67 2.9 N 13 19 7 10 998.6 998.6 0.4
21/10:00pm 12.8 8.4 7.5 70 2.6 N 20 28 11 15 998.8 998.8 0.4
21/09:30pm 13.1 8.7 6.5 64 3.2 NNE 19 26 10 14 998.6 998.6 0.4
21/09:00pm 12.9 9.4 7.1 68 2.8 N 15 20 8 11 998.7 998.7 0.4
21/08:30pm 14.0 10.3 6.4 60 3.6 NNW 15 22 8 12 998.8 998.8 0.4
21/08:00pm 12.2 10.4 7.1 71 2.5 NW 6 9 3 5 998.8 998.8 0.4
21/07:30pm 12.6 10.9 7.7 72 2.4 WNW 6 9 3 5 998.6 998.6 0.4
21/07:00pm 12.3 8.7 6.8 69 2.6 W 15 17 8 9 998.7 998.7 0.4
21/06:30pm 13.8 9.3 7.1 64 3.3 W 20 24 11 13 998.1 998.1 0.4
21/06:00pm 13.8 11.0 8.4 70 2.7 WSW 13 15 7 8 997.8 997.8 0.4
21/05:30pm 14.4 11.4 7.9 65 3.2 WSW 13 15 7 8 997.6 997.6 0.4
21/05:00pm 15.3 10.7 8.1 62 3.6 WSW 22 32 12 17 997.6 997.6 0.4
21/04:30pm 18.3 16.0 5.5 43 6.2 SW 7 13 4 7 997.1 997.1 0.4
21/04:00pm 18.2 15.0 6.7 47 5.8 SW 13 17 7 9 997.2 997.2 0.4
21/03:30pm 18.1 13.7 7.2 49 5.5 W 20 30 11 16 997.1 997.1 0.4
21/03:00pm 18.2 13.7 4.4 40 6.6 WNW 17 24 9 13 997.1 997.1 0.4
21/02:30pm 18.5 16.3 6.4 45 6.0 WNW 7 17 4 9 997.1 997.1 0.4
21/02:00pm 18.4 16.0 6.9 47 5.8 WNW 9 19 5 10 997.4 997.4 0.4
21/01:30pm 16.6 14.3 7.5 55 4.6 N 9 13 5 7 997.7 997.7 0.4
21/01:00pm 18.2 14.4 5.8 44 6.1 N 15 24 8 13 998.0 998.0 0.4
21/12:30pm 17.4 14.0 7.5 52 5.0 NNW 15 24 8 13 998.1 998.1 0.4
21/12:00pm 16.7 11.7 6.5 51 5.0 NNW 22 33 12 18 998.7 998.7 0.4
21/11:30am 16.3 10.4 5.9 50 5.0 NNW 26 39 14 21 998.7 998.7 0.4
21/11:00am 16.3 14.5 9.3 63 3.6 NNW 9 17 5 9 998.6 998.6 0.4
21/10:30am 16.0 10.4 7.0 55 4.4 NW 26 37 14 20 998.6 998.6 0.4
21/10:00am 14.3 9.5 8.9 70 2.8 NNW 24 39 13 21 997.9 997.9 0.4
21/09:30am 14.5 10.5 8.9 69 2.8 NW 20 28 11 15 998.7 998.7 0.4
21/09:00am 14.2 10.7 8.8 70 2.7 NNW 17 30 9 16 999.4 999.4 1.2
21/08:30am 13.0 7.7 10.0 82 1.5 W 28 35 15 19 999.3 999.3 0.6
21/08:00am 15.6 12.2 10.6 72 2.7 WSW 19 33 10 18 998.4 998.4 0.0
21/07:30am 14.9 10.9 10.5 75 2.3 NNW 22 30 12 16 997.8 997.8 0.0
21/07:00am 14.8 9.6 10.4 75 2.3 N 28 32 15 17 997.1 997.1 0.0
21/06:30am 14.8 8.8 10.2 74 2.4 NNE 32 35 17 19 997.3 997.3 0.0
21/06:21am 15.1 9.9 10.3 73 2.5 N 28 35 15 19 997.6 997.6 0.0
21/06:00am 14.3 13.3 10.3 77 2.1 N 6 17 3 9 997.4 997.4 0.0
21/05:30am 14.8 12.4 10.2 74 2.4 NE 13 17 7 9 997.9 997.9 0.0
21/05:00am 13.9 11.2 10.5 80 1.8 E 15 20 8 11 998.1 998.1 0.0
21/04:30am 14.2 12.2 10.2 77 2.1 E 11 20 6 11 998.4 998.4 0.0
21/04:00am 13.8 12.2 10.2 79 1.9 E 9 13 5 7 998.8 998.8 0.0
21/03:30am 13.4 12.2 10.4 82 1.6 E 7 9 4 5 999.3 999.3 0.0
21/03:00am 13.1 12.5 10.3 83 1.5 E 4 9 2 5 999.2 999.2 0.0
21/02:30am 13.0 12.1 10.5 85 1.3 ENE 6 9 3 5 1000.0 1000.0 0.0
21/02:00am 13.8 11.9 10.6 81 1.7 N 11 15 6 8 1000.4 1000.5 0.0
21/01:30am 14.2 11.8 10.2 77 2.1 NNE 13 20 7 11 1000.3 1000.3 0.0
21/01:00am 13.9 11.7 10.7 81 1.7 N 13 17 7 9 1000.4 1000.5 0.0
21/12:30am 14.4 11.3 10.2 76 2.2 NNE 17 20 9 11 1000.6 1000.7 0.0
21/12:00am 14.7 12.2 9.7 72 2.6 ESE 13 17 7 9 1000.9 1001.0 0.0
 
Date/Time
EST
Temp
°C
App
Temp
°C
Dew
Point
°C
Rel
Hum
%
Delta-T
°C
Wind Press
QNH
hPa
Press
MSL
hPa
Rain since
9am
mm
Dir  Spd
km/h
Gust
km/h
Spd
kts
Gust
kts
20/11:30pm 15.5 13.0 9.6 68 3.1 NNW 13 17 7 9 1001.2 1001.3 0.0
20/11:00pm 15.0 12.1 9.6 70 2.8 NW 15 20 8 11 1001.1 1001.2 0.0
20/10:30pm 15.6 12.7 9.5 67 3.2 NNW 15 19 8 10 1001.0 1001.1 0.0
20/10:00pm 15.5 12.2 9.4 67 3.2 NNW 17 20 9 11 1001.2 1001.3 0.0
20/09:30pm 15.3 10.8 9.9 70 2.8 N 24 30 13 16 1001.2 1001.3 0.0
20/09:00pm 14.9 12.5 10.1 73 2.5 NNW 13 17 7 9 1001.2 1001.3 0.0
20/08:30pm 16.8 13.3 10.2 65 3.5 NNW 19 26 10 14 1001.0 1001.1 0.0
20/08:00pm 14.9 12.8 11.3 79 1.9 NNW 13 20 7 11 1000.9 1001.0 0.0
20/07:30pm 15.2 10.4 11.8 80 1.8 NNE 28 33 15 18 1000.8 1000.9 0.0
20/07:00pm 15.8 13.3 12.2 79 2.0 N 17 28 9 15 1000.8 1000.9 0.0
20/06:30pm 15.1 12.4 11.7 80 1.8 NNE 17 19 9 10 1000.5 1000.6 0.0
20/06:00pm 15.7 13.0 11.7 77 2.2 NNE 17 19 9 10 1000.4 1000.5 0.0

Latest Capital City Observations: Canberra | Sydney | Melbourne | Brisbane | Adelaide | Perth | Hobart | Darwin

Other formats

Comma delimited format used in spreadsheet applications
http://www.bom.gov.au/fwo/IDT60901/IDT60901.94988.axf

JavaScript Object Notation format (JSON) in row-major order
http://www.bom.gov.au/fwo/IDT60901/IDT60901.94988.json

Data quality

Most of these data are generated automatically and are frequently updated. Quality checks on data are not normally performed. It is possible for incorrect values to appear. Refer to information at About Latest Weather Observations and please check the disclaimer before using these data.